Time;durP1;ratioP1;P1;durP2;ratioP2;P2;SDS_P1;SDS_P2;PMS_P1;PMS_P2;Temp;Humidity;BMP_temperature;BMP_pressure;BME280_temperature;BME280_humidity;BME280_pressure;Samples;Min_cycle;Max_cycle;Signal;HPM_P1;HPM_P2
2022/04/14 00:00:24;;;;;;;21.50;15.03;;;;;;;6.36;56.42;100535.98;2210911;79;21588;-73
2022/04/14 00:03:26;;;;;;;22.42;14.07;;;;;;;6.31;56.56;100536.38;2204092;79;21020;-73
2022/04/14 00:06:27;;;;;;;25.00;14.50;;;;;;;6.23;56.58;100538.83;2206941;79;21062;-73
2022/04/14 00:09:36;;;;;;;24.40;14.20;;;;;;;6.18;56.72;100535.24;2188358;79;21028;-73
2022/04/14 00:12:41;;;;;;;27.35;14.83;;;;;;;6.09;56.99;100528.60;2204486;79;21059;-73
2022/04/14 00:15:42;;;;;;;27.65;14.78;;;;;;;6.02;57.30;100526.45;2206657;79;21044;-73
2022/04/14 00:18:44;;;;;;;26.23;15.08;;;;;;;5.98;57.49;100525.53;2203234;79;20991;-73
2022/04/14 00:21:49;;;;;;;28.92;15.15;;;;;;;5.92;57.68;100535.23;2196610;79;21036;-73
2022/04/14 00:24:50;;;;;;;28.40;15.38;;;;;;;5.88;57.96;100529.84;2199820;79;20999;-73
2022/04/14 00:27:55;;;;;;;27.17;15.23;;;;;;;5.88;58.14;100529.84;2210218;79;21081;-73
2022/04/14 00:31:02;;;;;;;30.20;15.50;;;;;;;5.85;58.36;100532.25;2187421;79;21131;-73
2022/04/14 00:34:05;;;;;;;25.62;14.83;;;;;;;5.84;58.39;100527.47;2157077;80;21810;-73
2022/04/14 00:37:11;;;;;;;28.00;15.78;;;;;;;5.85;58.40;100521.23;2153806;81;20980;-73
2022/04/14 00:40:13;;;;;;;25.35;15.83;;;;;;;5.90;58.35;100531.89;2157043;80;21000;-73
2022/04/14 00:43:20;;;;;;;28.10;15.98;;;;;;;5.89;58.41;100530.22;2161486;80;21312;-73
2022/04/14 00:46:22;;;;;;;27.13;14.83;;;;;;;5.90;58.45;100529.25;2149064;81;21039;-73
2022/04/14 00:49:23;;;;;;;24.00;14.68;;;;;;;5.89;58.50;100523.64;2154681;80;21033;-73
2022/04/14 00:52:26;;;;;;;26.02;15.75;;;;;;;5.89;58.51;100531.55;2129055;81;21096;-73
2022/04/14 00:55:27;;;;;;;30.43;16.52;;;;;;;5.89;58.52;100524.95;2158305;81;21063;-73
2022/04/14 00:58:32;;;;;;;27.40;16.87;;;;;;;5.87;58.46;100528.19;2154562;81;21600;-73
2022/04/14 01:01:33;;;;;;;28.35;16.75;;;;;;;5.76;58.56;100526.43;2155429;80;20998;-73
2022/04/14 01:04:37;;;;;;;27.02;16.32;;;;;;;5.70;58.64;100529.09;2158017;80;21047;-73
2022/04/14 01:07:42;;;;;;;32.78;15.83;;;;;;;5.65;58.74;100527.30;2157566;80;21001;-72
2022/04/14 01:10:48;;;;;;;25.00;15.28;;;;;;;5.62;58.77;100531.50;2156657;81;21016;-73
2022/04/14 01:13:52;;;;;;;31.02;16.50;;;;;;;5.61;59.00;100527.21;2152714;81;21055;-73
2022/04/14 01:16:56;;;;;;;29.40;17.07;;;;;;;5.60;58.99;100529.47;2157181;81;21019;-73
2022/04/14 01:20:01;;;;;;;29.02;16.97;;;;;;;5.59;59.02;100528.64;2157528;80;21561;-72
2022/04/14 01:23:06;;;;;;;33.92;17.80;;;;;;;5.58;58.90;100525.66;2157156;80;21056;-72
2022/04/14 01:26:09;;;;;;;32.50;17.00;;;;;;;5.59;58.79;100528.64;2155122;81;21027;-72
2022/04/14 01:29:26;;;;;;;28.40;17.32;;;;;;;5.58;58.74;100526.15;2137453;81;21037;-72
2022/04/14 01:32:29;;;;;;;33.53;17.23;;;;;;;5.58;58.73;100526.98;2159823;80;21315;-72
2022/04/14 01:35:35;;;;;;;30.82;17.50;;;;;;;5.58;58.72;100522.20;2164211;80;21948;-73
2022/04/14 01:38:34;;;;;;;32.78;18.30;;;;;;;5.56;58.64;100525.42;2157705;80;21083;-73
2022/04/14 01:41:43;;;;;;;31.73;16.27;;;;;;;5.54;58.71;100516.81;2164041;80;21591;-73
2022/04/14 01:44:45;;;;;;;33.75;17.45;;;;;;;5.51;58.68;100524.95;2165026;80;21013;-73
2022/04/14 01:47:49;;;;;;;29.90;16.50;;;;;;;5.55;58.65;100522.45;2170862;80;21825;-73
2022/04/14 01:50:51;;;;;;;34.80;17.07;;;;;;;5.62;58.47;100518.34;2164841;80;21119;-72
2022/04/14 01:53:57;;;;;;;30.17;17.52;;;;;;;5.66;58.29;100511.87;2159241;80;21030;-72
2022/04/14 01:57:00;;;;;;;26.68;16.25;;;;;;;5.70;58.15;100507.19;2161817;80;21348;-73
2022/04/14 02:00:09;;;;;;;29.85;16.93;;;;;;;5.75;58.07;100516.88;2161405;80;21107;-72
2022/04/14 02:03:13;;;;;;;29.10;16.87;;;;;;;5.76;57.95;100504.87;2163426;80;21056;-75
2022/04/14 02:06:15;;;;;;;30.95;17.17;;;;;;;5.79;57.85;100499.36;2154664;80;21090;-74
2022/04/14 02:09:22;;;;;;;29.95;18.57;;;;;;;5.79;57.74;100499.36;2164467;80;21046;-74
2022/04/14 02:12:20;;;;;;;29.18;16.82;;;;;;;5.81;57.69;100494.81;2154068;80;21036;-74
2022/04/14 02:15:23;;;;;;;30.20;18.37;;;;;;;5.81;57.67;100493.49;2157230;80;21022;-74
2022/04/14 02:18:25;;;;;;;28.90;17.70;;;;;;;5.81;57.59;100490.86;2156744;80;21001;-74
2022/04/14 02:21:26;;;;;;;28.80;17.98;;;;;;;5.79;57.50;100487.50;2163425;80;21051;-74
2022/04/14 02:24:28;;;;;;;33.28;17.67;;;;;;;5.82;57.44;100493.84;2155064;80;20969;-74
2022/04/14 02:27:30;;;;;;;31.33;17.48;;;;;;;5.82;57.35;100491.20;2161155;80;21023;-74
2022/04/14 02:30:36;;;;;;;30.00;17.37;;;;;;;5.83;57.28;100486.31;2152585;80;21805;-74
2022/04/14 02:33:37;;;;;;;30.50;17.92;;;;;;;5.85;57.24;100486.16;2203949;78;21558;-74
2022/04/14 02:36:38;;;;;;;31.52;17.67;;;;;;;5.85;57.17;100483.53;2208789;78;20946;-74
2022/04/14 02:39:45;;;;;;;30.30;17.90;;;;;;;5.84;57.16;100481.38;2209548;79;21263;-74
2022/04/14 02:42:47;;;;;;;34.18;18.40;;;;;;;5.84;57.14;100486.66;2202486;78;21035;-74
2022/04/14 02:45:49;;;;;;;35.25;17.70;;;;;;;5.85;57.10;100483.05;2202238;78;21054;-74
2022/04/14 02:48:55;;;;;;;28.42;17.62;;;;;;;5.84;57.08;100485.82;2195143;79;21038;-74
2022/04/14 02:51:56;;;;;;;29.98;18.40;;;;;;;5.85;57.06;100488.31;2207229;77;21491;-74
2022/04/14 02:55:00;;;;;;;35.23;17.92;;;;;;;5.83;57.07;100487.63;2208415;79;21874;-74
2022/04/14 02:58:01;;;;;;;35.83;18.35;;;;;;;5.82;57.05;100489.88;2204458;78;21078;-74
2022/04/14 03:01:03;;;;;;;32.93;18.05;;;;;;;5.80;57.09;100485.70;2198620;79;21022;-74
2022/04/14 03:04:04;;;;;;;34.75;17.92;;;;;;;5.77;57.17;100480.23;2207221;78;20961;-74
2022/04/14 03:07:06;;;;;;;36.15;18.40;;;;;;;5.75;57.16;100484.79;2207470;78;21499;-74
2022/04/14 03:10:08;;;;;;;33.33;18.87;;;;;;;5.75;57.21;100485.27;2205783;79;21036;-74
2022/04/14 03:13:09;;;;;;;33.63;18.32;;;;;;;5.70;57.20;100482.18;2200982;78;21476;-74
2022/04/14 03:16:11;;;;;;;34.65;18.20;;;;;;;5.66;57.19;100482.06;2215819;78;21071;-74
2022/04/14 03:19:12;;;;;;;36.73;20.05;;;;;;;5.64;57.26;100482.20;2211890;79;21053;-74
2022/04/14 03:22:16;;;;;;;36.48;19.23;;;;;;;5.61;57.30;100490.36;2207648;79;21000;-74
2022/04/14 03:25:21;;;;;;;33.20;19.90;;;;;;;5.60;57.35;100488.20;2201971;78;21548;-74
2022/04/14 03:28:23;;;;;;;30.82;18.20;;;;;;;5.53;57.41;100483.08;2217131;78;21444;-74
2022/04/14 03:31:24;;;;;;;33.02;18.80;;;;;;;5.51;57.45;100476.27;2210395;78;21052;-74
2022/04/14 03:34:28;;;;;;;36.68;18.95;;;;;;;5.48;57.49;100475.20;2208329;78;21021;-74
2022/04/14 03:37:32;;;;;;;31.15;18.70;;;;;;;5.43;57.54;100467.67;2197334;79;21350;-74
2022/04/14 03:40:36;;;;;;;31.90;18.82;;;;;;;5.39;57.56;100468.41;2204756;78;21118;-74
2022/04/14 03:43:38;;;;;;;36.00;20.00;;;;;;;5.36;57.64;100459.94;2203331;79;21567;-74
2022/04/14 03:46:42;;;;;;;35.25;19.48;;;;;;;5.31;57.66;100462.92;2207994;79;20965;-74
2022/04/14 03:49:44;;;;;;;33.53;19.20;;;;;;;5.29;57.73;100466.16;2199643;78;21733;-74
2022/04/14 03:52:47;;;;;;;32.65;20.15;;;;;;;5.26;57.73;100465.09;2209273;78;22267;-74
2022/04/14 03:55:49;;;;;;;35.83;19.70;;;;;;;5.24;57.79;100470.14;2204874;78;21858;-74
2022/04/14 03:58:50;;;;;;;33.30;18.15;;;;;;;5.22;57.85;100466.80;2202843;79;21057;-74
2022/04/14 04:01:52;;;;;;;38.80;20.97;;;;;;;5.18;57.90;100459.64;2208883;79;20975;-74
2022/04/14 04:04:54;;;;;;;29.90;18.00;;;;;;;5.17;57.95;100462.72;2206043;79;21016;-73
2022/04/14 04:07:56;;;;;;;37.03;19.37;;;;;;;5.17;57.93;100465.35;2203165;78;21661;-73
2022/04/14 04:10:58;;;;;;;34.70;18.52;;;;;;;5.16;57.93;100458.92;2203105;78;21792;-74
2022/04/14 04:14:03;;;;;;;30.02;18.85;;;;;;;5.18;57.97;100463.59;2210004;78;21052;-74
2022/04/14 04:17:05;;;;;;;37.38;19.80;;;;;;;5.18;57.98;100459.64;2204449;79;21050;-74
2022/04/14 04:20:08;;;;;;;34.38;20.08;;;;;;;5.20;57.99;100459.50;2200724;79;21937;-72
2022/04/14 04:23:14;;;;;;;37.35;21.00;;;;;;;5.23;57.99;100459.25;2206305;78;20971;-73
2022/04/14 04:26:15;;;;;;;34.25;19.70;;;;;;;5.26;58.06;100460.31;2214753;78;21040;-74
2022/04/14 04:29:22;;;;;;;29.42;18.25;;;;;;;5.27;58.09;100462.83;2210917;78;21005;-73
2022/04/14 04:32:28;;;;;;;35.25;19.77;;;;;;;5.30;58.16;100462.58;2202650;78;21174;-72
2022/04/14 04:35:30;;;;;;;35.80;19.17;;;;;;;5.34;58.14;100463.98;2193435;79;21031;-73
2022/04/14 04:38:31;;;;;;;30.75;18.60;;;;;;;5.55;58.25;100464.05;2196030;79;20947;-73
2022/04/14 04:41:38;;;;;;;32.80;18.77;;;;;;;5.95;58.24;100471.31;2205824;79;21504;-71
2022/04/14 04:44:39;;;;;;;33.23;19.00;;;;;;;6.42;58.05;100462.51;2202894;79;21009;-78
2022/04/14 04:47:41;;;;;;;38.83;18.40;;;;;;;6.84;57.67;100452.30;2204109;79;21007;-73
2022/04/14 04:50:42;;;;;;;31.40;18.55;;;;;;;7.21;57.11;100454.33;2196991;79;21008;-72
2022/04/14 04:53:45;;;;;;;30.40;17.82;;;;;;;7.55;56.84;100448.20;2202823;79;20985;-73
2022/04/14 04:56:49;;;;;;;35.30;19.12;;;;;;;8.02;56.33;100454.88;2196863;79;21041;-73
2022/04/14 04:59:50;;;;;;;32.98;19.57;;;;;;;8.30;55.93;100452.64;2194591;79;21520;-71
2022/04/14 05:02:54;;;;;;;30.82;19.70;;;;;;;8.63;55.70;100446.51;2193719;79;21013;-72
2022/04/14 05:05:55;;;;;;;34.55;18.95;;;;;;;9.00;55.49;100444.80;2203116;79;21374;-72
2022/04/14 05:08:56;;;;;;;33.60;19.50;;;;;;;9.51;55.40;100444.14;2199173;79;20988;-73
2022/04/14 05:11:57;;;;;;;29.95;19.00;;;;;;;9.99;54.68;100438.89;2199127;79;21048;-72
2022/04/14 05:14:58;;;;;;;36.50;19.32;;;;;;;10.28;53.92;100436.48;2171207;79;21010;-73
2022/04/14 05:18:00;;;;;;;29.30;19.30;;;;;;;10.46;53.64;100440.37;2198536;79;20990;-71
2022/04/14 05:21:01;;;;;;;30.40;18.30;;;;;;;10.68;53.05;100437.17;2194920;79;21006;-74
2022/04/14 05:24:03;;;;;;;37.15;21.33;;;;;;;10.67;52.11;100431.53;2190942;79;21020;-72
2022/04/14 05:27:05;;;;;;;29.42;18.37;;;;;;;10.37;52.01;100438.68;2195867;79;21492;-73
2022/04/14 05:30:07;;;;;;;32.65;18.98;;;;;;;10.31;52.30;100444.95;2192973;79;21347;-73
2022/04/14 05:33:10;;;;;;;31.68;19.73;;;;;;;10.37;52.19;100449.29;2208652;79;21887;-72
2022/04/14 05:36:12;;;;;;;35.43;19.17;;;;;;;10.40;52.19;100449.80;2181391;79;21655;-72
2022/04/14 05:39:14;;;;;;;32.13;18.67;;;;;;;10.50;52.17;100446.55;2212652;78;21020;-72
2022/04/14 05:42:15;;;;;;;33.45;19.60;;;;;;;10.70;52.33;100453.77;2206124;79;21046;-72
2022/04/14 05:45:17;;;;;;;32.45;18.57;;;;;;;10.86;52.19;100460.95;2207252;79;21027;-71
2022/04/14 05:48:19;;;;;;;33.00;19.12;;;;;;;10.97;51.94;100463.81;2206458;79;21520;-72
2022/04/14 05:51:21;;;;;;;35.03;20.30;;;;;;;11.05;51.70;100461.69;2207624;78;21482;-72
2022/04/14 05:54:23;;;;;;;35.75;19.00;;;;;;;11.20;51.87;100454.24;2207968;79;21107;-72
2022/04/14 05:57:24;;;;;;;31.40;19.00;;;;;;;11.37;51.40;100460.92;2204796;78;21527;-73
2022/04/14 06:00:25;;;;;;;31.33;19.07;;;;;;;11.44;51.31;100463.27;2200632;79;21626;-72
2022/04/14 06:03:27;;;;;;;30.85;19.35;;;;;;;11.72;51.44;100464.30;2199322;78;21070;-72
2022/04/14 06:06:28;;;;;;;32.73;19.48;;;;;;;12.01;50.85;100461.16;2209751;79;21354;-71
2022/04/14 06:09:29;;;;;;;30.25;18.95;;;;;;;12.35;51.05;100466.25;2211774;79;20988;-72
2022/04/14 06:12:31;;;;;;;37.60;20.02;;;;;;;12.74;50.81;100464.97;2204848;79;21904;-73
2022/04/14 06:15:32;;;;;;;33.40;19.67;;;;;;;13.23;50.41;100466.56;2208037;79;21023;-73
2022/04/14 06:18:34;;;;;;;33.20;19.87;;;;;;;13.66;49.92;100460.33;2202411;78;21305;-73
2022/04/14 06:21:35;;;;;;;32.30;18.80;;;;;;;14.12;49.54;100457.59;2207681;79;20989;-72
2022/04/14 06:24:36;;;;;;;34.85;19.50;;;;;;;14.44;48.76;100460.42;2205482;79;21619;-72
2022/04/14 06:27:38;;;;;;;32.03;20.45;;;;;;;14.65;48.36;100458.39;2205524;78;21026;-72
2022/04/14 06:30:39;;;;;;;33.02;19.37;;;;;;;14.91;48.06;100460.57;2213795;78;21024;-73
2022/04/14 06:33:41;;;;;;;31.30;19.35;;;;;;;14.86;47.59;100462.15;2208257;78;21368;-73
2022/04/14 06:36:42;;;;;;;30.10;19.55;;;;;;;15.00;47.12;100461.30;2204603;79;21310;-72
2022/04/14 06:39:43;;;;;;;30.52;19.02;;;;;;;15.08;47.25;100457.69;2203820;78;21098;-73
2022/04/14 06:42:44;;;;;;;34.55;19.87;;;;;;;15.18;46.59;100455.05;2209307;78;21032;-73
2022/04/14 06:45:45;;;;;;;28.45;18.92;;;;;;;14.94;46.03;100458.03;2202160;79;21327;-73
2022/04/14 06:48:46;;;;;;;31.48;19.07;;;;;;;14.86;46.30;100452.80;2204904;78;21507;-73
2022/04/14 06:51:48;;;;;;;31.62;17.65;;;;;;;15.11;46.55;100452.79;2203110;78;21014;-73
2022/04/14 06:54:49;;;;;;;31.15;18.50;;;;;;;15.53;45.71;100457.05;2203880;79;21062;-73
2022/04/14 06:57:51;;;;;;;31.10;18.82;;;;;;;15.81;45.72;100460.63;2209012;77;21052;-73
2022/04/14 07:00:52;;;;;;;28.05;17.55;;;;;;;16.24;45.16;100462.40;2205189;78;21688;-73
2022/04/14 07:03:53;;;;;;;31.60;17.55;;;;;;;16.53;44.51;100454.16;2202508;79;20986;-73
2022/04/14 07:06:59;;;;;;;28.35;17.67;;;;;;;16.76;44.42;100454.37;2209076;78;21045;-72
2022/04/14 07:10:00;;;;;;;28.07;17.77;;;;;;;17.10;43.70;100450.83;2208235;79;21789;-73
2022/04/14 07:13:01;;;;;;;27.75;17.37;;;;;;;17.36;43.69;100447.89;2213484;79;21016;-73
2022/04/14 07:16:03;;;;;;;26.85;17.40;;;;;;;17.78;43.40;100445.89;2198927;79;21545;-72
2022/04/14 07:19:05;;;;;;;24.75;15.75;;;;;;;17.77;42.31;100442.91;2204749;79;21014;-72
2022/04/14 07:22:06;;;;;;;27.93;17.42;;;;;;;18.06;42.61;100440.34;2203647;79;21039;-74
2022/04/14 07:25:08;;;;;;;26.42;17.17;;;;;;;18.29;42.27;100438.55;2217134;78;20997;-73
2022/04/14 07:28:09;;;;;;;26.05;16.27;;;;;;;18.51;41.21;100440.47;2209795;79;20995;-74
2022/04/14 07:31:10;;;;;;;25.45;16.17;;;;;;;18.59;40.69;100444.27;2200908;79;21609;-74
2022/04/14 07:34:14;;;;;;;27.60;15.43;;;;;;;18.61;40.91;100440.83;2206605;78;20977;-74
2022/04/14 07:37:15;;;;;;;31.85;18.00;;;;;;;18.69;40.54;100439.78;2212275;78;21051;-74
2022/04/14 07:40:17;;;;;;;24.87;15.48;;;;;;;18.88;38.91;100428.16;2207470;79;21510;-73
2022/04/14 07:43:19;;;;;;;22.50;15.60;;;;;;;18.58;39.71;100427.33;2198613;79;20992;-74
2022/04/14 07:46:21;;;;;;;26.05;15.68;;;;;;;18.85;40.11;100428.59;2210871;79;21081;-74
2022/04/14 07:49:22;;;;;;;23.55;14.07;;;;;;;19.15;39.58;100425.36;2207139;78;21062;-73
2022/04/14 07:52:24;;;;;;;18.15;12.98;;;;;;;19.12;38.56;100425.76;2210871;78;21043;-73
2022/04/14 07:55:30;;;;;;;23.55;13.32;;;;;;;19.34;37.44;100423.04;2205343;79;21487;-73
2022/04/14 07:58:33;;;;;;;22.60;14.10;;;;;;;19.36;38.50;100419.62;2204100;78;21376;-74
2022/04/14 08:01:35;;;;;;;33.50;13.30;;;;;;;19.52;37.79;100420.97;2210169;78;21769;-73
2022/04/14 08:04:38;;;;;;;20.97;13.22;;;;;;;19.79;37.73;100430.20;2205660;78;21836;-74
2022/04/14 08:07:39;;;;;;;27.60;13.62;;;;;;;19.80;36.86;100421.10;2201633;79;21331;-74
2022/04/14 08:10:44;;;;;;;18.07;12.45;;;;;;;19.86;37.36;100418.88;2202424;79;21075;-74
2022/04/14 08:13:45;;;;;;;20.37;13.62;;;;;;;20.10;37.09;100415.84;2213628;77;21067;-74
2022/04/14 08:16:47;;;;;;;20.27;13.50;;;;;;;20.04;35.66;100414.86;2208793;79;21046;-74
2022/04/14 08:19:48;;;;;;;20.00;13.38;;;;;;;19.85;36.84;100419.90;2208459;79;21806;-74
2022/04/14 08:22:54;;;;;;;19.20;13.15;;;;;;;19.98;35.67;100410.36;2209172;78;21804;-74
2022/04/14 08:25:57;;;;;;;25.48;12.50;;;;;;;19.79;36.83;100414.05;2199486;78;21060;-74
2022/04/14 08:29:00;;;;;;;19.67;12.35;;;;;;;19.99;36.36;100413.37;2213396;78;21394;-74
2022/04/14 08:32:03;;;;;;;19.90;11.78;;;;;;;20.02;36.18;100410.73;2209213;78;21011;-74
2022/04/14 08:35:05;;;;;;;16.27;11.80;;;;;;;20.15;35.89;100413.30;2164827;79;21514;-74
2022/04/14 08:38:08;;;;;;;19.55;10.28;;;;;;;20.24;36.46;100405.23;2168269;80;20996;-74
2022/04/14 08:41:13;;;;;;;19.23;10.03;;;;;;;20.55;36.15;100406.16;2158631;80;21821;-73
2022/04/14 08:44:18;;;;;;;18.82;11.10;;;;;;;20.89;35.97;100405.23;2168558;80;21014;-73
2022/04/14 08:47:21;;;;;;;15.00;10.10;;;;;;;21.02;35.43;100399.13;2160038;80;21022;-73
2022/04/14 08:50:23;;;;;;;16.80;10.05;;;;;;;21.05;35.40;100398.67;2161389;80;21004;-72
2022/04/14 08:53:27;;;;;;;16.10;9.80;;;;;;;21.05;35.40;100401.38;2160473;80;22001;-72
2022/04/14 08:56:30;;;;;;;17.05;10.75;;;;;;;21.15;35.67;100396.80;2164036;80;21668;-73
2022/04/14 08:59:32;;;;;;;18.80;10.03;;;;;;;21.40;35.41;100381.81;2161551;80;21049;-69
2022/04/14 09:02:35;;;;;;;15.60;9.38;;;;;;;21.60;35.33;100386.08;2158524;80;21271;-74
2022/04/14 09:05:39;;;;;;;14.18;9.30;;;;;;;21.63;34.89;100382.91;2164120;80;21079;-73
2022/04/14 09:08:46;;;;;;;24.20;9.33;;;;;;;21.58;34.54;100382.78;2151186;80;20961;-74
2022/04/14 09:11:50;;;;;;;18.27;9.90;;;;;;;21.60;34.18;100377.98;2158218;80;21051;-74
2022/04/14 09:14:55;;;;;;;11.57;8.63;;;;;;;21.71;34.65;100382.03;2164764;80;21019;-75
2022/04/14 09:17:55;;;;;;;13.58;8.68;;;;;;;21.97;34.16;100368.30;2134931;80;21025;-74
2022/04/14 09:21:05;;;;;;;11.40;7.65;;;;;;;21.94;34.15;100377.70;2164068;80;21032;-74
2022/04/14 09:24:07;;;;;;;13.18;7.37;;;;;;;21.84;33.19;100369.34;2153500;80;21138;-75
2022/04/14 09:27:10;;;;;;;12.73;7.95;;;;;;;21.76;33.23;100372.39;2081679;84;21509;-75
2022/04/14 09:30:17;;;;;;;16.05;8.23;;;;;;;21.87;33.70;100361.59;2163376;80;21015;-75
2022/04/14 09:33:18;;;;;;;14.58;7.35;;;;;;;21.96;33.60;100366.10;2170027;79;21053;-75
2022/04/14 09:36:23;;;;;;;18.62;7.50;;;;;;;22.08;33.53;100362.06;2212213;79;21068;-75
2022/04/14 09:39:24;;;;;;;16.20;8.45;;;;;;;22.27;33.41;100363.60;2206765;79;21048;-75
2022/04/14 09:42:29;;;;;;;14.03;8.00;;;;;;;22.31;32.92;100366.11;2205459;79;21053;-75
2022/04/14 09:45:32;;;;;;;17.17;9.00;;;;;;;22.36;32.83;100365.41;2199583;79;21057;-74
2022/04/14 09:48:34;;;;;;;12.45;7.72;;;;;;;22.49;32.83;100364.30;2200874;79;20979;-75
2022/04/14 09:51:39;;;;;;;23.07;8.48;;;;;;;22.80;32.88;100358.41;2201962;79;21005;-75
2022/04/14 09:54:40;;;;;;;12.68;8.65;;;;;;;23.06;32.14;100356.23;2201029;79;21012;-75
2022/04/14 09:57:42;;;;;;;11.63;8.23;;;;;;;23.16;32.34;100359.64;2198715;79;20988;-74
2022/04/14 10:00:55;;;;;;;10.23;7.33;;;;;;;23.40;30.83;100356.27;2198394;79;21052;-75
2022/04/14 10:03:57;;;;;;;12.65;7.25;;;;;;;23.38;31.56;100350.28;2181652;79;21037;-75
2022/04/14 10:07:09;;;;;;;9.73;7.15;;;;;;;23.56;31.13;100353.27;2198556;79;21296;-75
2022/04/14 10:10:22;;;;;;;15.60;7.95;;;;;;;23.61;30.56;100346.58;2198945;79;21083;-75
2022/04/14 10:13:24;;;;;;;9.38;7.42;;;;;;;23.64;30.15;100347.44;2201631;79;21024;-75
2022/04/14 10:16:26;;;;;;;13.98;7.60;;;;;;;23.40;29.62;100353.57;2200054;78;21087;-75
2022/04/14 10:19:28;;;;;;;12.90;7.47;;;;;;;23.46;30.18;100349.88;2202816;79;21602;-75
2022/04/14 10:22:31;;;;;;;11.70;7.00;;;;;;;23.62;29.94;100341.44;2201651;79;20997;-75
2022/04/14 10:25:33;;;;;;;11.73;7.72;;;;;;;23.63;30.01;100343.91;2204974;79;21047;-74
2022/04/14 10:28:36;;;;;;;12.33;8.25;;;;;;;23.74;30.15;100344.08;2202088;79;21819;-75
2022/04/14 10:31:38;;;;;;;16.62;8.25;;;;;;;23.82;30.13;100354.49;2196296;79;21033;-75
2022/04/14 10:34:41;;;;;;;13.78;8.00;;;;;;;23.79;29.90;100345.52;2172165;79;21089;-75
2022/04/14 10:37:47;;;;;;;16.17;7.37;;;;;;;23.67;29.76;100341.52;2205035;79;21854;-75
2022/04/14 10:40:58;;;;;;;13.98;9.00;;;;;;;23.84;29.79;100339.63;2202336;79;21046;-75
2022/04/14 10:44:02;;;;;;;13.28;8.28;;;;;;;24.02;28.28;100339.05;2180471;79;21468;-75
2022/04/14 10:47:04;;;;;;;10.32;7.08;;;;;;;23.62;28.62;100332.77;2195499;79;21844;-75
2022/04/14 10:50:25;;;;;;;11.25;7.33;;;;;;;23.40;29.03;100329.20;2200685;79;21016;-75
2022/04/14 10:53:28;;;;;;;12.65;7.85;;;;;;;23.54;29.54;100333.72;2202340;79;21317;-75
2022/04/14 10:56:42;;;;;;;12.55;7.35;;;;;;;23.49;28.70;100322.30;2201199;79;21813;-75
2022/04/14 10:59:44;;;;;;;12.18;7.53;;;;;;;23.38;28.56;100318.61;2203988;79;21691;-75
2022/04/14 11:03:08;;;;;;;20.12;7.40;;;;;;;23.52;29.55;100325.05;2196572;79;20997;-75
2022/04/14 11:06:10;;;;;;;11.35;7.30;;;;;;;23.84;29.22;100317.14;2191068;79;21032;-75
2022/04/14 11:09:46;;;;;;;17.02;7.78;;;;;;;23.90;29.50;100318.84;2192487;79;21814;-75
2022/04/14 11:12:55;;;;;;;12.03;7.03;;;;;;;24.12;29.44;100315.63;2203072;79;21076;-75
2022/04/14 11:15:57;;;;;;;13.85;8.25;;;;;;;24.09;29.16;100313.96;2197093;79;21034;-74
2022/04/14 11:19:22;;;;;;;14.50;9.10;;;;;;;24.10;28.56;100312.37;2196067;79;21020;-75
2022/04/14 11:22:24;;;;;;;17.00;8.83;;;;;;;23.85;28.35;100311.48;2128644;79;21013;-75
2022/04/14 11:25:44;;;;;;;10.78;7.53;;;;;;;23.85;29.20;100310.64;2202039;79;21082;-74
2022/04/14 11:28:51;;;;;;;15.68;8.35;;;;;;;23.98;28.99;100315.71;2200118;79;21077;-74
2022/04/14 11:31:52;;;;;;;10.63;7.20;;;;;;;24.05;28.92;100301.45;2117092;82;21047;-75
2022/04/14 11:35:08;;;;;;;12.63;7.22;;;;;;;24.13;29.55;100299.66;2128548;82;21067;-75
2022/04/14 11:38:30;;;;;;;16.25;8.48;;;;;;;24.20;29.02;100298.65;2135275;82;21052;-75
2022/04/14 11:41:50;;;;;;;11.70;7.90;;;;;;;24.13;29.13;100298.81;2132412;81;21074;-74
2022/04/14 11:44:56;;;;;;;15.63;7.80;;;;;;;24.18;29.42;100294.01;2135726;82;21101;-75
2022/04/14 11:48:00;;;;;;;16.27;6.85;;;;;;;24.32;29.26;100291.20;2135250;82;21734;-75
2022/04/14 11:51:02;;;;;;;10.63;7.00;;;;;;;24.44;29.34;100288.37;2112078;82;21071;-74
2022/04/14 11:54:03;;;;;;;8.90;6.35;;;;;;;24.53;28.79;100287.68;2131356;80;21102;-75
2022/04/14 11:57:14;;;;;;;9.23;6.83;;;;;;;24.51;29.04;100288.46;2128593;82;21010;-75
2022/04/14 12:00:18;;;;;;;13.03;7.10;;;;;;;24.53;28.34;100287.68;2131232;82;21071;-75
2022/04/14 12:03:33;;;;;;;10.80;8.53;;;;;;;24.51;28.87;100282.22;2131907;82;21043;-74
2022/04/14 12:06:34;;;;;;;11.05;7.12;;;;;;;24.43;28.91;100267.73;2134008;82;20994;-75
2022/04/14 12:09:43;;;;;;;9.83;7.00;;;;;;;24.38;29.29;100268.48;2134737;82;21047;-75
2022/04/14 12:12:49;;;;;;;12.68;8.18;;;;;;;24.50;29.30;100267.85;2132827;82;21089;-75
2022/04/14 12:16:06;;;;;;;16.77;7.85;;;;;;;24.53;28.96;100277.37;2129958;81;21531;-74
2022/04/14 12:19:07;;;;;;;10.78;7.47;;;;;;;24.54;28.45;100272.22;2136136;82;21048;-75
2022/04/14 12:22:09;;;;;;;11.85;6.95;;;;;;;24.50;29.30;100262.97;2139666;82;21622;-75
2022/04/14 12:25:12;;;;;;;13.03;7.37;;;;;;;24.45;29.13;100258.84;2131281;82;21034;-74
2022/04/14 12:28:13;;;;;;;10.32;7.55;;;;;;;24.44;29.06;100259.39;2128675;81;21119;-75
2022/04/14 12:31:20;;;;;;;10.15;7.50;;;;;;;24.45;28.89;100262.91;2133757;82;21066;-75
2022/04/14 12:34:22;;;;;;;11.75;7.40;;;;;;;24.39;28.93;100266.08;2132436;82;21848;-74
2022/04/14 12:37:38;;;;;;;11.97;7.20;;;;;;;24.32;29.04;100262.72;2140630;81;21070;-75
2022/04/14 12:41:02;;;;;;;12.07;8.45;;;;;;;24.37;29.15;100258.72;2144838;80;21033;-74
2022/04/14 12:44:05;;;;;;;12.37;7.42;;;;;;;24.32;29.11;100251.88;2143022;81;21067;-74
2022/04/14 12:47:09;;;;;;;16.17;10.18;;;;;;;24.35;29.08;100248.11;2139394;81;21026;-74
2022/04/14 12:50:11;;;;;;;14.73;8.28;;;;;;;24.33;29.26;100245.41;2141922;81;21114;-75
2022/04/14 12:53:13;;;;;;;16.20;7.85;;;;;;;24.42;29.11;100243.86;2146224;81;21062;-75
2022/04/14 12:56:16;;;;;;;9.48;6.92;;;;;;;24.42;28.96;100240.34;2133186;81;20988;-75
2022/04/14 12:59:18;;;;;;;13.05;7.03;;;;;;;24.43;28.90;100234.67;2142423;81;21573;-74
2022/04/14 13:02:23;;;;;;;10.32;6.53;;;;;;;24.41;28.29;100231.36;2147945;81;21401;-75
2022/04/14 13:05:27;;;;;;;11.00;7.20;;;;;;;24.25;28.32;100228.23;2142276;81;21028;-74
2022/04/14 13:08:34;;;;;;;13.35;7.65;;;;;;;24.25;28.94;100230.94;2142454;81;21130;-75
2022/04/14 13:11:46;;;;;;;10.32;7.10;;;;;;;24.21;28.94;100225.19;2143134;81;21781;-74
2022/04/14 13:14:47;;;;;;;10.55;7.53;;;;;;;24.12;28.94;100221.30;2138969;81;21127;-75
2022/04/14 13:17:50;;;;;;;22.42;6.85;;;;;;;24.15;28.89;100219.44;2140361;80;21425;-75
2022/04/14 13:20:52;;;;;;;13.30;7.30;;;;;;;24.21;28.80;100208.11;2139094;81;20983;-74
2022/04/14 13:23:53;;;;;;;11.68;7.35;;;;;;;24.11;28.87;100208.28;2142271;81;21903;-75
2022/04/14 13:26:56;;;;;;;11.20;6.10;;;;;;;24.08;28.76;100209.34;2146461;81;21013;-75
2022/04/14 13:29:59;;;;;;;30.05;6.97;;;;;;;24.11;28.87;100204.22;2146826;81;21032;-75
2022/04/14 13:33:03;;;;;;;10.08;5.92;;;;;;;24.15;28.69;100196.39;2144842;81;21015;-75
2022/04/14 13:36:04;;;;;;;9.93;6.08;;;;;;;24.19;28.92;100204.83;2141341;81;21042;-74
2022/04/14 13:39:06;;;;;;;9.73;5.90;;;;;;;24.06;28.72;100201.99;2140597;80;21130;-74
2022/04/14 13:42:08;;;;;;;8.40;6.65;;;;;;;23.92;27.82;100204.27;2145520;80;20977;-75
2022/04/14 13:45:11;;;;;;;9.20;6.03;;;;;;;23.63;28.46;100194.95;2142250;80;20991;-75
2022/04/14 13:48:12;;;;;;;9.40;6.20;;;;;;;23.46;28.74;100194.99;2144243;81;20983;-74
2022/04/14 13:51:14;;;;;;;15.43;6.90;;;;;;;23.37;28.88;100198.36;2141529;81;20986;-75
2022/04/14 13:54:16;;;;;;;12.85;6.47;;;;;;;23.32;29.16;100195.61;2142624;80;21001;-75
2022/04/14 13:57:17;;;;;;;10.38;6.62;;;;;;;23.18;29.41;100198.66;2141804;81;21142;-75
2022/04/14 14:00:19;;;;;;;9.05;6.17;;;;;;;23.06;29.48;100199.29;2140257;81;21016;-74